createdAt,value
2022-07-29T00:00:51.580Z,0
2022-07-29T00:01:51.576Z,0
2022-07-29T00:02:51.650Z,0
2022-07-29T00:03:51.646Z,0
2022-07-29T00:04:51.584Z,0
2022-07-29T00:05:51.582Z,0
2022-07-29T00:06:51.589Z,0
2022-07-29T00:07:51.586Z,0
2022-07-29T00:08:51.592Z,0
2022-07-29T00:09:52.590Z,0
2022-07-29T00:10:51.595Z,0
2022-07-29T00:11:51.607Z,0
2022-07-29T00:12:51.595Z,0
2022-07-29T00:13:51.617Z,0
2022-07-29T00:14:51.598Z,0
2022-07-29T00:15:51.610Z,0
2022-07-29T00:16:51.642Z,0
2022-07-29T00:17:51.605Z,0
2022-07-29T00:18:51.600Z,0
2022-07-29T00:19:51.613Z,0
2022-07-29T00:20:51.604Z,5
2022-07-29T00:21:51.604Z,0
2022-07-29T00:22:51.608Z,0
2022-07-29T00:23:51.612Z,0
2022-07-29T00:24:51.608Z,4.2
2022-07-29T00:25:51.607Z,3
2022-07-29T00:26:51.610Z,0
2022-07-29T00:27:51.616Z,5.800000000000001
2022-07-29T00:28:51.604Z,4
2022-07-29T00:29:51.614Z,0
2022-07-29T00:30:51.609Z,9.5
2022-07-29T00:31:51.676Z,11.200000000000001
2022-07-29T00:32:51.615Z,7.1000000000000005
2022-07-29T00:33:51.620Z,5.9
2022-07-29T00:34:51.618Z,6.300000000000001
2022-07-29T00:35:51.618Z,3.8000000000000003
2022-07-29T00:36:51.623Z,7.800000000000001
2022-07-29T00:37:51.631Z,7.4
2022-07-29T00:38:51.625Z,7.1000000000000005
2022-07-29T00:39:51.625Z,6.1000000000000005
2022-07-29T00:40:51.622Z,7.300000000000001
2022-07-29T00:41:51.620Z,8.200000000000001
2022-07-29T00:42:51.630Z,7.1000000000000005
2022-07-29T00:43:51.626Z,3.9000000000000004
2022-07-29T00:44:51.635Z,5.9
2022-07-29T00:45:51.630Z,4.3
2022-07-29T00:46:51.695Z,5.5
2022-07-29T00:47:51.631Z,6.9
2022-07-29T00:48:51.678Z,8.3
2022-07-29T00:49:51.635Z,3.4000000000000004
2022-07-29T00:50:51.641Z,4
2022-07-29T00:51:51.639Z,3.3000000000000003
2022-07-29T00:52:51.641Z,2.1
2022-07-29T00:53:51.645Z,2.2
2022-07-29T00:54:51.640Z,2.6
2022-07-29T00:55:51.643Z,0
2022-07-29T00:56:51.647Z,2.2
2022-07-29T00:57:51.644Z,1.3
2022-07-29T00:58:51.640Z,0
2022-07-29T00:59:51.644Z,0
2022-07-29T01:00:51.739Z,0
2022-07-29T01:01:51.758Z,0
2022-07-29T01:02:51.649Z,0
2022-07-29T01:03:51.657Z,0
2022-07-29T01:04:51.656Z,0
2022-07-29T01:05:52.032Z,0
2022-07-29T01:06:51.655Z,0
2022-07-29T01:07:51.654Z,0
2022-07-29T01:08:51.663Z,0
2022-07-29T01:09:51.656Z,0
2022-07-29T01:10:51.659Z,0
2022-07-29T01:11:51.663Z,0
2022-07-29T01:12:51.666Z,5.6000000000000005
2022-07-29T01:13:51.659Z,4.800000000000001
2022-07-29T01:14:51.655Z,0
2022-07-29T01:15:51.706Z,0
2022-07-29T01:16:51.666Z,0
2022-07-29T01:17:52.515Z,0
2022-07-29T01:18:51.656Z,0
2022-07-29T01:19:51.672Z,0
2022-07-29T01:20:51.675Z,0
2022-07-29T01:21:51.670Z,0
2022-07-29T01:22:51.670Z,0
2022-07-29T01:23:51.679Z,0
2022-07-29T01:24:51.684Z,0
2022-07-29T01:25:53.309Z,0
2022-07-29T01:26:51.671Z,0
2022-07-29T01:27:51.677Z,0
2022-07-29T01:28:51.671Z,0
2022-07-29T01:29:51.674Z,0
2022-07-29T01:30:51.679Z,0
2022-07-29T01:31:58.871Z,0
2022-07-29T01:32:51.681Z,0
2022-07-29T01:33:51.685Z,0
2022-07-29T01:34:51.689Z,0
2022-07-29T01:35:51.690Z,0
2022-07-29T01:36:51.681Z,0
2022-07-29T01:37:51.695Z,0
2022-07-29T01:38:51.692Z,0
2022-07-29T01:39:51.685Z,0
2022-07-29T01:40:51.686Z,0
2022-07-29T01:41:51.698Z,0
2022-07-29T01:42:51.692Z,0
2022-07-29T01:43:51.706Z,0
2022-07-29T01:44:51.690Z,0
2022-07-29T01:45:51.700Z,0
2022-07-29T01:46:51.761Z,0
2022-07-29T01:47:51.682Z,0
2022-07-29T01:48:51.779Z,0
2022-07-29T01:49:51.705Z,0
2022-07-29T01:50:51.729Z,0
2022-07-29T01:51:51.714Z,0
2022-07-29T01:52:51.704Z,0
2022-07-29T01:53:51.716Z,0
2022-07-29T01:54:51.732Z,0
2022-07-29T01:55:51.703Z,0
2022-07-29T01:56:51.718Z,0
2022-07-29T01:57:51.714Z,0
2022-07-29T01:58:51.704Z,0
2022-07-29T01:59:51.717Z,0
2022-07-29T02:00:51.712Z,0
2022-07-29T02:01:51.792Z,0
2022-07-29T02:02:51.710Z,0
2022-07-29T02:03:51.717Z,0
2022-07-29T02:04:51.820Z,0
2022-07-29T02:05:51.720Z,0
2022-07-29T02:06:51.721Z,0
2022-07-29T02:07:51.729Z,0
2022-07-29T02:08:51.719Z,0
2022-07-29T02:09:51.723Z,0
2022-07-29T02:10:51.722Z,0
2022-07-29T02:11:51.723Z,0
2022-07-29T02:12:51.725Z,0
2022-07-29T02:13:51.721Z,0
2022-07-29T02:14:51.728Z,0
2022-07-29T02:15:51.789Z,0
2022-07-29T02:16:51.729Z,0
2022-07-29T02:17:51.735Z,0
2022-07-29T02:18:51.750Z,0
2022-07-29T02:19:51.740Z,0
2022-07-29T02:20:51.739Z,0
2022-07-29T02:21:51.740Z,0
2022-07-29T02:22:51.746Z,0
2022-07-29T02:23:51.915Z,0
2022-07-29T02:24:51.766Z,0
2022-07-29T02:25:51.739Z,0
2022-07-29T02:26:51.748Z,3.9000000000000004
2022-07-29T02:27:51.744Z,2.4000000000000004
2022-07-29T02:28:51.741Z,3.3000000000000003
2022-07-29T02:29:51.746Z,5.9
2022-07-29T02:30:51.824Z,3.7
2022-07-29T02:31:51.752Z,1.2000000000000002
2022-07-29T02:32:51.762Z,0
2022-07-29T02:33:51.751Z,1.8
2022-07-29T02:34:51.754Z,0
2022-07-29T02:35:51.757Z,0
2022-07-29T02:36:51.751Z,0
2022-07-29T02:37:51.749Z,3.5
2022-07-29T02:38:51.756Z,4
2022-07-29T02:39:51.790Z,0
2022-07-29T02:40:51.766Z,0
2022-07-29T02:41:51.757Z,2.8000000000000003
2022-07-29T02:42:51.771Z,0
2022-07-29T02:43:51.783Z,0
2022-07-29T02:44:51.757Z,0
2022-07-29T02:45:52.068Z,0
2022-07-29T02:46:51.871Z,0
2022-07-29T02:47:51.760Z,2.9000000000000004
2022-07-29T02:48:51.848Z,4.1000000000000005
2022-07-29T02:49:51.761Z,3.4000000000000004
2022-07-29T02:50:51.767Z,3.8000000000000003
2022-07-29T02:51:51.772Z,2.6
2022-07-29T02:52:51.774Z,10.100000000000001
2022-07-29T02:53:51.772Z,3.7
2022-07-29T02:54:51.783Z,7.1000000000000005
2022-07-29T02:55:51.763Z,7.2
2022-07-29T02:56:51.772Z,7.2
2022-07-29T02:57:54.302Z,5.9
2022-07-29T02:58:51.776Z,6.300000000000001
2022-07-29T02:59:51.771Z,6.5
2022-07-29T03:00:51.784Z,9.1
2022-07-29T03:01:51.886Z,10.5
2022-07-29T03:02:51.781Z,5
2022-07-29T03:03:51.784Z,7.1000000000000005
2022-07-29T03:04:51.842Z,5.5
2022-07-29T03:05:51.777Z,4.5
2022-07-29T03:06:51.792Z,5.300000000000001
2022-07-29T03:07:51.779Z,7.9
2022-07-29T03:08:51.781Z,2.2
2022-07-29T03:09:51.783Z,0
2022-07-29T03:10:51.782Z,1.8
2022-07-29T03:11:51.785Z,0
2022-07-29T03:12:51.784Z,6.9
2022-07-29T03:13:51.782Z,6.7
2022-07-29T03:14:51.780Z,3.8000000000000003
2022-07-29T03:15:51.873Z,3.3000000000000003
2022-07-29T03:16:51.813Z,4.1000000000000005
2022-07-29T03:17:51.793Z,4.4
2022-07-29T03:18:51.789Z,0
2022-07-29T03:19:51.786Z,0
2022-07-29T03:20:51.793Z,0
2022-07-29T03:21:51.790Z,0
2022-07-29T03:22:51.790Z,0
2022-07-29T03:23:51.793Z,0
2022-07-29T03:24:51.787Z,2.6
2022-07-29T03:25:51.795Z,0
2022-07-29T03:26:51.796Z,0
2022-07-29T03:27:51.788Z,0
2022-07-29T03:28:51.793Z,0
2022-07-29T03:29:51.795Z,0
2022-07-29T03:30:51.828Z,0
2022-07-29T03:31:51.795Z,0
2022-07-29T03:32:51.966Z,0
2022-07-29T03:33:51.796Z,0
2022-07-29T03:34:51.793Z,0
2022-07-29T03:35:51.790Z,0
2022-07-29T03:36:51.791Z,0
2022-07-29T03:37:51.790Z,0
2022-07-29T03:38:51.789Z,0
2022-07-29T03:39:51.813Z,0
2022-07-29T03:40:51.790Z,0
2022-07-29T03:41:51.790Z,0
2022-07-29T03:42:51.788Z,0
2022-07-29T03:43:51.793Z,0
2022-07-29T03:44:51.796Z,0
2022-07-29T03:45:51.785Z,0
2022-07-29T03:46:51.840Z,0
2022-07-29T03:47:53.814Z,0
2022-07-29T03:48:51.858Z,0
2022-07-29T03:49:51.785Z,0
2022-07-29T03:50:51.797Z,0
2022-07-29T03:51:51.802Z,0
2022-07-29T03:52:51.787Z,0
2022-07-29T03:53:51.792Z,0
2022-07-29T03:54:51.794Z,0
2022-07-29T03:55:51.794Z,0
2022-07-29T03:56:51.802Z,0
2022-07-29T03:57:51.799Z,0
2022-07-29T03:58:51.802Z,0
2022-07-29T03:59:51.802Z,0
2022-07-29T04:00:51.797Z,0
2022-07-29T04:01:51.834Z,0
2022-07-29T04:02:51.797Z,0
2022-07-29T04:03:51.903Z,0
2022-07-29T04:04:51.815Z,0
2022-07-29T04:05:51.802Z,0
2022-07-29T04:06:51.805Z,0
2022-07-29T04:07:51.811Z,0
2022-07-29T04:08:51.802Z,0
2022-07-29T04:09:51.797Z,0
2022-07-29T04:10:51.806Z,0
2022-07-29T04:11:57.166Z,0
2022-07-29T04:12:51.803Z,0
2022-07-29T04:13:51.823Z,0
2022-07-29T04:14:51.807Z,0
2022-07-29T04:15:51.901Z,0
2022-07-29T04:16:51.812Z,0
2022-07-29T04:17:51.811Z,0
2022-07-29T04:18:51.818Z,0
2022-07-29T04:19:51.808Z,0
2022-07-29T04:20:51.817Z,0
2022-07-29T04:21:51.807Z,0
2022-07-29T04:22:51.817Z,0
2022-07-29T04:23:52.887Z,0
2022-07-29T04:24:51.810Z,0
2022-07-29T04:25:51.814Z,0
2022-07-29T04:26:51.822Z,0
2022-07-29T04:27:51.831Z,0
2022-07-29T04:28:51.826Z,0
2022-07-29T04:29:56.425Z,0
2022-07-29T04:30:51.858Z,0
2022-07-29T04:31:51.842Z,0
2022-07-29T04:32:51.832Z,0
2022-07-29T04:33:51.828Z,0
2022-07-29T04:34:51.830Z,0
2022-07-29T04:35:52.627Z,0
2022-07-29T04:36:51.831Z,0
2022-07-29T04:37:51.836Z,0
2022-07-29T04:38:51.836Z,0
2022-07-29T04:39:51.834Z,0
2022-07-29T04:40:51.834Z,0
2022-07-29T04:41:52.432Z,0
2022-07-29T04:42:51.839Z,0
2022-07-29T04:43:51.835Z,0
2022-07-29T04:44:51.842Z,0
2022-07-29T04:45:51.917Z,0
2022-07-29T04:46:51.843Z,0
2022-07-29T04:47:51.849Z,0
2022-07-29T04:48:51.933Z,0
2022-07-29T04:49:51.847Z,0
2022-07-29T04:50:51.847Z,0
2022-07-29T04:51:51.848Z,0
2022-07-29T04:52:51.852Z,0
2022-07-29T04:53:51.855Z,0
2022-07-29T04:54:51.854Z,0
2022-07-29T04:55:51.839Z,0
2022-07-29T04:56:51.860Z,0
2022-07-29T04:57:51.855Z,0
2022-07-29T04:58:51.855Z,0
2022-07-29T04:59:51.848Z,0
2022-07-29T05:00:51.895Z,0
2022-07-29T05:01:51.939Z,0
2022-07-29T05:02:51.920Z,0
2022-07-29T05:03:53.153Z,0
2022-07-29T05:04:51.865Z,0
2022-07-29T05:05:51.845Z,0
2022-07-29T05:06:51.858Z,0
2022-07-29T05:07:51.856Z,0
2022-07-29T05:08:51.864Z,0
2022-07-29T05:09:51.864Z,0
2022-07-29T05:10:51.879Z,0
2022-07-29T05:11:51.862Z,0
2022-07-29T05:12:51.860Z,0
2022-07-29T05:13:51.868Z,0
2022-07-29T05:14:51.870Z,0
2022-07-29T05:15:51.896Z,0
2022-07-29T05:16:51.874Z,0
2022-07-29T05:17:51.872Z,0
2022-07-29T05:18:51.873Z,0
2022-07-29T05:19:51.873Z,0
2022-07-29T05:20:51.876Z,0
2022-07-29T05:21:51.878Z,0
2022-07-29T05:22:51.881Z,0
2022-07-29T05:23:51.881Z,0
2022-07-29T05:24:51.880Z,0
2022-07-29T05:25:51.868Z,0
2022-07-29T05:26:51.881Z,0
2022-07-29T05:27:51.886Z,0
2022-07-29T05:28:51.888Z,0
2022-07-29T05:29:51.881Z,0
2022-07-29T05:30:51.908Z,0
2022-07-29T05:31:51.887Z,0
2022-07-29T05:32:51.881Z,0
2022-07-29T05:33:51.888Z,0
2022-07-29T05:34:52.013Z,0
2022-07-29T05:35:51.893Z,0
2022-07-29T05:36:51.884Z,0
2022-07-29T05:37:51.897Z,0
2022-07-29T05:38:51.893Z,0
2022-07-29T05:39:56.461Z,0
2022-07-29T05:40:51.895Z,0
2022-07-29T05:41:52.197Z,0
2022-07-29T05:42:51.901Z,0
2022-07-29T05:43:51.901Z,0
2022-07-29T05:44:51.893Z,0
2022-07-29T05:45:51.939Z,0
2022-07-29T05:46:51.900Z,0
2022-07-29T05:47:51.898Z,0
2022-07-29T05:48:51.972Z,0
2022-07-29T05:49:51.897Z,0
2022-07-29T05:50:51.901Z,0
2022-07-29T05:51:51.899Z,0
2022-07-29T05:52:51.917Z,0
2022-07-29T05:53:51.906Z,0
2022-07-29T05:54:51.898Z,0
2022-07-29T05:55:51.909Z,4.6000000000000005
2022-07-29T05:56:51.916Z,2.4000000000000004
2022-07-29T05:57:51.901Z,2
2022-07-29T05:58:51.901Z,5.1000000000000005
2022-07-29T05:59:51.905Z,3.1
2022-07-29T06:00:51.945Z,4.5
2022-07-29T06:01:51.972Z,1.5
2022-07-29T06:02:51.913Z,0
2022-07-29T06:03:51.911Z,0
2022-07-29T06:04:51.990Z,0
2022-07-29T06:05:51.908Z,0
2022-07-29T06:06:51.909Z,0
2022-07-29T06:07:51.929Z,8.1
2022-07-29T06:08:51.919Z,4.3
2022-07-29T06:09:51.916Z,3.2
2022-07-29T06:10:51.910Z,2.2
2022-07-29T06:11:51.916Z,3.7
2022-07-29T06:12:51.915Z,3.1
2022-07-29T06:13:51.915Z,5.9
2022-07-29T06:14:54.170Z,0
2022-07-29T06:15:51.978Z,5.2
2022-07-29T06:16:51.989Z,4.4
2022-07-29T06:17:59.474Z,1.9000000000000001
2022-07-29T06:18:51.919Z,0
2022-07-29T06:19:51.922Z,0
2022-07-29T06:20:51.919Z,0
2022-07-29T06:21:51.918Z,0
2022-07-29T06:22:51.919Z,0
2022-07-29T06:23:51.935Z,3.8000000000000003
2022-07-29T06:24:51.916Z,4.2
2022-07-29T06:25:51.923Z,1.9000000000000001
2022-07-29T06:26:51.921Z,0
2022-07-29T06:27:51.928Z,0
2022-07-29T06:28:51.921Z,0
2022-07-29T06:29:51.930Z,0
2022-07-29T06:30:51.943Z,0
2022-07-29T06:31:51.929Z,2.7
2022-07-29T06:32:51.925Z,2.5
2022-07-29T06:33:51.924Z,0
2022-07-29T06:34:51.927Z,4
2022-07-29T06:35:53.752Z,0
2022-07-29T06:36:51.928Z,2.3000000000000003
2022-07-29T06:37:51.933Z,5.9
2022-07-29T06:38:52.183Z,0
2022-07-29T06:39:53.706Z,0
2022-07-29T06:40:51.927Z,0
2022-07-29T06:41:51.927Z,0
2022-07-29T06:42:51.949Z,0
2022-07-29T06:43:54.698Z,0
2022-07-29T06:44:51.931Z,0
2022-07-29T06:45:51.959Z,0
2022-07-29T06:46:51.937Z,0
2022-07-29T06:47:51.938Z,0
2022-07-29T06:48:52.860Z,0
2022-07-29T06:49:51.932Z,0
2022-07-29T06:50:51.925Z,0
2022-07-29T06:51:51.933Z,0
2022-07-29T06:52:51.941Z,0
2022-07-29T06:53:58.708Z,0
2022-07-29T06:54:51.935Z,0
2022-07-29T06:55:51.935Z,0
2022-07-29T06:56:51.930Z,0
2022-07-29T06:57:51.941Z,0
2022-07-29T06:58:51.939Z,0
2022-07-29T06:59:51.934Z,0
2022-07-29T07:00:51.974Z,0
2022-07-29T07:01:51.970Z,0
2022-07-29T07:02:51.965Z,0
2022-07-29T07:03:51.941Z,0
2022-07-29T07:04:51.938Z,0
2022-07-29T07:05:51.936Z,0
2022-07-29T07:06:51.949Z,0
2022-07-29T07:07:51.934Z,0
2022-07-29T07:08:51.941Z,0
2022-07-29T07:09:51.933Z,0
2022-07-29T07:10:51.932Z,0
2022-07-29T07:11:51.939Z,0
2022-07-29T07:12:51.928Z,0
2022-07-29T07:13:51.938Z,0
2022-07-29T07:14:51.936Z,0
2022-07-29T07:15:51.943Z,2.2
2022-07-29T07:16:52.610Z,0
2022-07-29T07:17:51.947Z,3.4000000000000004
2022-07-29T07:18:51.940Z,4.800000000000001
2022-07-29T07:19:51.937Z,1.9000000000000001
2022-07-29T07:20:51.937Z,3.9000000000000004
2022-07-29T07:21:51.937Z,0
2022-07-29T07:22:51.941Z,0
2022-07-29T07:23:51.933Z,2.2
2022-07-29T07:24:51.939Z,4.6000000000000005
2022-07-29T07:25:51.938Z,3.5
2022-07-29T07:26:51.934Z,0
2022-07-29T07:27:51.936Z,0
2022-07-29T07:28:51.942Z,0
2022-07-29T07:29:51.935Z,0
2022-07-29T07:30:51.943Z,0
2022-07-29T07:31:52.152Z,0
2022-07-29T07:32:51.939Z,0
2022-07-29T07:33:51.938Z,4.1000000000000005
2022-07-29T07:34:51.942Z,1.6
2022-07-29T07:35:51.943Z,0
2022-07-29T07:36:51.931Z,0
2022-07-29T07:37:51.944Z,0
2022-07-29T07:38:51.943Z,2.8000000000000003
2022-07-29T07:39:51.936Z,1.1
2022-07-29T07:40:51.943Z,2.8000000000000003
2022-07-29T07:41:51.940Z,4.800000000000001
2022-07-29T07:42:51.944Z,2.1
2022-07-29T07:43:51.936Z,1.7000000000000002
2022-07-29T07:45:12.372Z,2.3000000000000003
2022-07-29T07:45:51.995Z,2.8000000000000003
2022-07-29T07:46:51.942Z,1.6
2022-07-29T07:47:51.977Z,2.1
2022-07-29T07:48:51.984Z,0.30000000000000004
2022-07-29T07:49:51.941Z,0
2022-07-29T07:50:51.948Z,3
2022-07-29T07:51:51.946Z,2.1
2022-07-29T07:52:51.962Z,0
2022-07-29T07:53:51.951Z,0
2022-07-29T07:54:51.947Z,2.7
2022-07-29T07:56:52.985Z,3
2022-07-29T07:57:51.954Z,7.1000000000000005
2022-07-29T07:58:51.955Z,5.4
2022-07-29T07:59:51.955Z,6.300000000000001
2022-07-29T08:00:51.966Z,8.700000000000001
2022-07-29T08:01:55.327Z,6.2
2022-07-29T08:02:52.057Z,4.2
2022-07-29T08:03:51.951Z,7
2022-07-29T08:04:51.957Z,4.4
2022-07-29T08:05:51.952Z,4
2022-07-29T08:06:51.963Z,0
2022-07-29T08:07:51.983Z,4.7
2022-07-29T08:08:52.050Z,2.7
2022-07-29T08:09:51.959Z,3
2022-07-29T08:10:51.951Z,0
2022-07-29T08:11:52.108Z,5.4
2022-07-29T08:12:51.964Z,5.2
2022-07-29T08:13:51.952Z,1.7000000000000002
2022-07-29T08:14:51.959Z,0
2022-07-29T08:15:51.965Z,0
2022-07-29T08:16:52.067Z,0
2022-07-29T08:17:51.944Z,0
2022-07-29T08:18:51.958Z,4.9
2022-07-29T08:19:51.965Z,3.3000000000000003
2022-07-29T08:20:51.956Z,0
2022-07-29T08:21:52.147Z,0
2022-07-29T08:22:51.961Z,0
2022-07-29T08:23:57.976Z,0
2022-07-29T08:24:51.963Z,5.6000000000000005
2022-07-29T08:25:51.954Z,0
2022-07-29T08:26:51.959Z,0
2022-07-29T08:27:51.961Z,0
2022-07-29T08:28:51.979Z,3
2022-07-29T08:29:51.966Z,7.4
2022-07-29T08:30:51.965Z,5.6000000000000005
2022-07-29T08:31:52.221Z,4.5
2022-07-29T08:32:53.973Z,2.7
2022-07-29T08:33:51.962Z,4
2022-07-29T08:34:51.960Z,8.1
2022-07-29T08:35:51.959Z,4.9
2022-07-29T08:36:51.961Z,3.3000000000000003
2022-07-29T08:37:51.966Z,0
2022-07-29T08:38:52.063Z,4.5
2022-07-29T08:39:51.961Z,5.800000000000001
2022-07-29T08:40:51.967Z,3.8000000000000003
2022-07-29T08:41:53.134Z,6.6000000000000005
2022-07-29T08:42:51.962Z,4.800000000000001
2022-07-29T08:43:51.973Z,3.7
2022-07-29T08:44:51.960Z,5.9
2022-07-29T08:45:52.009Z,0
2022-07-29T08:46:51.955Z,3.7
2022-07-29T08:47:51.959Z,7
2022-07-29T08:48:52.007Z,7
2022-07-29T08:49:51.966Z,7.2
2022-07-29T08:50:51.961Z,2.4000000000000004
2022-07-29T08:51:51.979Z,5.800000000000001
2022-07-29T08:52:54.444Z,3.5
2022-07-29T08:53:51.972Z,2
2022-07-29T08:54:51.962Z,2.7
2022-07-29T08:55:51.975Z,0
2022-07-29T08:56:51.974Z,5.9
2022-07-29T08:57:54.297Z,0
2022-07-29T08:58:52.680Z,0
2022-07-29T08:59:51.966Z,3.8000000000000003
2022-07-29T09:00:52.033Z,2.9000000000000004
2022-07-29T09:01:52.092Z,6
2022-07-29T09:02:51.971Z,0.8
2022-07-29T09:03:51.984Z,1.7000000000000002
2022-07-29T09:04:51.974Z,0
2022-07-29T09:05:51.973Z,0
2022-07-29T09:06:51.973Z,1.6
2022-07-29T09:07:51.976Z,2.9000000000000004
2022-07-29T09:08:51.974Z,3.8000000000000003
2022-07-29T09:09:51.978Z,6.2
2022-07-29T09:10:51.980Z,1
2022-07-29T09:11:52.267Z,4.9
2022-07-29T09:12:51.980Z,0
2022-07-29T09:13:51.979Z,0
2022-07-29T09:14:51.981Z,0
2022-07-29T09:15:51.983Z,1.5
2022-07-29T09:16:53.394Z,0
2022-07-29T09:17:51.982Z,0
2022-07-29T09:18:51.983Z,3.7
2022-07-29T09:19:51.984Z,5.5
2022-07-29T09:20:51.984Z,3.2
2022-07-29T09:21:51.987Z,7
2022-07-29T09:22:51.988Z,3.9000000000000004
2022-07-29T09:23:51.998Z,1.9000000000000001
2022-07-29T09:24:51.999Z,2.1
2022-07-29T09:25:51.992Z,2.7
2022-07-29T09:26:52.269Z,1.9000000000000001
2022-07-29T09:27:51.991Z,2.9000000000000004
2022-07-29T09:28:51.993Z,5.800000000000001
2022-07-29T09:29:51.990Z,6
2022-07-29T09:30:51.994Z,2.6
2022-07-29T09:31:52.077Z,0
2022-07-29T09:32:51.990Z,0
2022-07-29T09:33:52.000Z,0
2022-07-29T09:34:54.616Z,0
2022-07-29T09:35:56.298Z,0
2022-07-29T09:36:52.036Z,5.9
2022-07-29T09:37:51.995Z,3.5
2022-07-29T09:38:52.002Z,0
2022-07-29T09:39:51.993Z,2.7
2022-07-29T09:40:52.000Z,4.7
2022-07-29T09:41:51.999Z,4.9
2022-07-29T09:42:51.999Z,4.4
2022-07-29T09:43:52.003Z,2.3000000000000003
2022-07-29T09:44:52.003Z,0
2022-07-29T09:45:52.005Z,1.3
2022-07-29T09:46:52.123Z,3
2022-07-29T09:47:51.999Z,1.7000000000000002
2022-07-29T09:48:52.017Z,4.4
2022-07-29T09:49:52.004Z,1.1
2022-07-29T09:50:52.001Z,0
2022-07-29T09:51:52.001Z,0
2022-07-29T09:52:52.020Z,0
2022-07-29T09:53:53.100Z,0
2022-07-29T09:54:52.011Z,0
2022-07-29T09:55:52.123Z,3.5
2022-07-29T09:56:52.070Z,0
2022-07-29T09:57:52.006Z,3.2
2022-07-29T09:58:52.018Z,0
2022-07-29T09:59:52.011Z,7.9
2022-07-29T10:00:52.070Z,3.8000000000000003
2022-07-29T10:01:52.205Z,0
2022-07-29T10:02:52.036Z,0
2022-07-29T10:03:52.185Z,0
2022-07-29T10:04:52.012Z,3.3000000000000003
2022-07-29T10:05:52.012Z,4.5
2022-07-29T10:06:52.016Z,5.6000000000000005
2022-07-29T10:07:54.038Z,5.7
2022-07-29T10:08:52.014Z,5.6000000000000005
2022-07-29T10:09:52.013Z,2.6
2022-07-29T10:10:52.013Z,1.5
2022-07-29T10:11:52.018Z,2.5
2022-07-29T10:12:52.020Z,0
2022-07-29T10:13:52.017Z,0
2022-07-29T10:14:52.021Z,0
2022-07-29T10:15:52.055Z,0
2022-07-29T10:16:52.019Z,0
2022-07-29T10:17:52.017Z,0
2022-07-29T10:18:52.020Z,6.300000000000001
2022-07-29T10:19:52.013Z,2.4000000000000004
2022-07-29T10:20:52.017Z,4.4
2022-07-29T10:21:55.010Z,0.6000000000000001
2022-07-29T10:22:53.651Z,0
2022-07-29T10:23:52.020Z,1.7000000000000002
2022-07-29T10:24:52.022Z,0
2022-07-29T10:25:52.028Z,3
2022-07-29T10:26:52.024Z,4
2022-07-29T10:27:52.020Z,0
2022-07-29T10:28:52.030Z,0
2022-07-29T10:29:52.020Z,0
2022-07-29T10:30:52.027Z,0
2022-07-29T10:31:52.105Z,2
2022-07-29T10:32:54.185Z,0
2022-07-29T10:33:52.030Z,0
2022-07-29T10:34:52.024Z,6.4
2022-07-29T10:35:52.027Z,6.300000000000001
2022-07-29T10:36:52.022Z,3.6
2022-07-29T10:37:52.030Z,8
2022-07-29T10:38:52.021Z,3
2022-07-29T10:39:52.024Z,6.800000000000001
2022-07-29T10:40:52.026Z,6.9
2022-07-29T10:41:52.024Z,6.4
2022-07-29T10:42:52.022Z,5.4
2022-07-29T10:43:52.256Z,4.6000000000000005
2022-07-29T10:44:52.028Z,0.9
2022-07-29T10:45:52.031Z,5.6000000000000005
2022-07-29T10:46:52.127Z,5.5
2022-07-29T10:47:52.036Z,1.3
2022-07-29T10:48:52.035Z,4.800000000000001
2022-07-29T10:49:52.029Z,5.7
2022-07-29T10:50:52.032Z,0
2022-07-29T10:51:52.035Z,6.800000000000001
2022-07-29T10:52:52.043Z,1.4000000000000001
2022-07-29T10:53:52.033Z,0
2022-07-29T10:54:52.029Z,2.7
2022-07-29T10:55:52.026Z,9
2022-07-29T10:56:52.031Z,7.5
2022-07-29T10:57:52.922Z,6.6000000000000005
2022-07-29T10:58:52.691Z,2.8000000000000003
2022-07-29T10:59:53.021Z,3.9000000000000004
2022-07-29T11:00:52.033Z,4
2022-07-29T11:01:53.705Z,4.7
2022-07-29T11:02:52.137Z,4.6000000000000005
2022-07-29T11:03:52.292Z,4.7
2022-07-29T11:04:52.043Z,5.7
2022-07-29T11:05:52.033Z,3.5
2022-07-29T11:06:52.031Z,0
2022-07-29T11:07:52.033Z,0
2022-07-29T11:08:52.036Z,5
2022-07-29T11:09:52.039Z,3.1
2022-07-29T11:10:52.033Z,2.5
2022-07-29T11:11:52.038Z,4.1000000000000005
2022-07-29T11:12:52.028Z,0
2022-07-29T11:13:52.304Z,5.300000000000001
2022-07-29T11:14:52.032Z,3.3000000000000003
2022-07-29T11:15:52.034Z,0
2022-07-29T11:16:52.040Z,0
2022-07-29T11:17:53.152Z,0
2022-07-29T11:18:52.035Z,0
2022-07-29T11:19:52.410Z,3.7
2022-07-29T11:20:52.036Z,2.8000000000000003
2022-07-29T11:21:54.389Z,4.3
2022-07-29T11:22:52.035Z,2.9000000000000004
2022-07-29T11:23:52.032Z,0
2022-07-29T11:24:52.042Z,3.4000000000000004
2022-07-29T11:25:52.305Z,7
2022-07-29T11:26:52.037Z,3.1
2022-07-29T11:27:52.037Z,4.2
2022-07-29T11:28:52.040Z,4.5
2022-07-29T11:29:52.034Z,2.1
2022-07-29T11:30:52.047Z,0
2022-07-29T11:31:52.035Z,0
2022-07-29T11:32:52.037Z,5.1000000000000005
2022-07-29T11:33:54.964Z,2.7
2022-07-29T11:34:52.033Z,1.8
2022-07-29T11:36:52.036Z,3.4000000000000004
2022-07-29T11:37:52.870Z,2.1
2022-07-29T11:38:52.031Z,0
2022-07-29T11:39:52.041Z,2
2022-07-29T11:40:52.035Z,5.1000000000000005
2022-07-29T11:41:52.040Z,5.6000000000000005
2022-07-29T11:43:52.037Z,5
2022-07-29T11:44:52.042Z,3.2
2022-07-29T11:45:52.040Z,3.2
2022-07-29T11:46:53.838Z,7.6000000000000005
2022-07-29T11:47:52.166Z,6.5
2022-07-29T11:48:52.221Z,3.6
2022-07-29T11:49:52.046Z,0
2022-07-29T11:50:52.041Z,0
2022-07-29T11:51:52.038Z,0
2022-07-29T11:52:52.042Z,0
2022-07-29T11:53:52.391Z,0
2022-07-29T11:54:52.542Z,0
2022-07-29T11:55:52.187Z,2.2
2022-07-29T11:56:52.042Z,0
2022-07-29T11:58:03.609Z,4.9
2022-07-29T11:58:52.039Z,3.2
2022-07-29T11:59:52.044Z,5.4
2022-07-29T12:00:52.058Z,4.7
2022-07-29T12:01:52.049Z,1.2000000000000002
2022-07-29T12:02:52.046Z,0
2022-07-29T12:03:52.118Z,0
2022-07-29T12:04:52.171Z,0
2022-07-29T12:05:52.111Z,0
2022-07-29T12:06:52.048Z,0
2022-07-29T12:07:03.026Z,1.9000000000000001
2022-07-29T12:07:52.054Z,0
2022-07-29T12:08:52.045Z,0
2022-07-29T12:09:52.047Z,0
2022-07-29T12:10:52.043Z,0
2022-07-29T12:11:52.060Z,5.2
2022-07-29T12:12:52.048Z,6.1000000000000005
2022-07-29T12:13:52.067Z,0
2022-07-29T12:14:52.055Z,3.4000000000000004
2022-07-29T12:15:52.084Z,4.7
2022-07-29T12:16:52.070Z,7.6000000000000005
2022-07-29T12:17:52.054Z,1.3
2022-07-29T12:18:52.050Z,3.2
2022-07-29T12:19:52.059Z,3.1
2022-07-29T12:20:52.053Z,6.4
2022-07-29T12:21:53.725Z,7
2022-07-29T12:22:52.049Z,2.2
2022-07-29T12:23:52.059Z,0.8
2022-07-29T12:24:52.043Z,2.9000000000000004
2022-07-29T12:25:52.058Z,7.4
2022-07-29T12:26:52.052Z,3.3000000000000003
2022-07-29T12:27:52.062Z,0
2022-07-29T12:28:52.044Z,2.9000000000000004
2022-07-29T12:29:52.055Z,1.7000000000000002
2022-07-29T12:30:52.063Z,0
2022-07-29T12:31:52.102Z,4.1000000000000005
2022-07-29T12:32:52.055Z,4.4
2022-07-29T12:33:52.056Z,3.7
2022-07-29T12:34:52.054Z,5.5
2022-07-29T12:36:03.741Z,6.5
2022-07-29T12:36:52.045Z,2.7
2022-07-29T12:37:52.053Z,7
2022-07-29T12:38:52.055Z,4.5
2022-07-29T12:39:52.058Z,4.7
2022-07-29T12:40:52.054Z,5
2022-07-29T12:41:52.059Z,2.4000000000000004
2022-07-29T12:42:52.054Z,1.9000000000000001
2022-07-29T12:43:52.054Z,0
2022-07-29T12:44:52.056Z,2.9000000000000004
2022-07-29T12:45:52.068Z,8.5
2022-07-29T12:46:52.158Z,2.1
2022-07-29T12:47:52.079Z,2.9000000000000004
2022-07-29T12:48:52.104Z,0
2022-07-29T12:49:52.071Z,3.5
2022-07-29T12:50:52.059Z,1.5
2022-07-29T12:51:52.058Z,0
2022-07-29T12:52:52.056Z,0
2022-07-29T12:53:52.056Z,0
2022-07-29T12:54:52.060Z,0
2022-07-29T12:55:52.057Z,0
2022-07-29T12:56:52.063Z,0
2022-07-29T12:57:52.059Z,0
2022-07-29T12:58:52.060Z,0
2022-07-29T12:59:52.062Z,0
2022-07-29T13:00:52.134Z,5.9
2022-07-29T13:01:52.060Z,3.8000000000000003
2022-07-29T13:02:52.136Z,2
2022-07-29T13:03:56.753Z,0
2022-07-29T13:04:52.057Z,0
2022-07-29T13:05:52.064Z,1.3
2022-07-29T13:06:52.057Z,3.8000000000000003
2022-07-29T13:07:54.766Z,4.7
2022-07-29T13:08:52.061Z,3.9000000000000004
2022-07-29T13:09:52.060Z,5.300000000000001
2022-07-29T13:10:52.062Z,5.4
2022-07-29T13:11:52.062Z,6.4
2022-07-29T13:12:52.057Z,0
2022-07-29T13:13:52.059Z,2.9000000000000004
2022-07-29T13:14:52.078Z,5.6000000000000005
2022-07-29T13:15:52.065Z,1.5